aviador You're here:

K1YT Decoded Metar

in
Report Time2017-05-30 00:58:00
UTC Time2017-05-30 01:30:08
Flight Rules vfr VFR
Wind150° at 03 kt
W.Rank150° ranks 35
Current wind is below 150° avg. (3.4)
Visibility9999 m
Phenomena:N/A
Clouds:N/A
Expected CloudBase > 11,200 ft AGL from Temp-Dew spread
CeilingNone
Temp33°C
Dew Point05°C (17% RH)
Heat Index30.8°C
AAT30.7°C
QNH1011 hPa
Raw Report
METAR K1YT 300058Z AUTO 15003KT 10SM CLR 33/05 A2985 RMK AO2 SLPNO
T03270053 $=

Extra information for K1YT:More info

Social comments